createdAt,value
2023-07-15T00:13:28.311Z,99953.16
2023-07-15T00:28:31.337Z,99957.88
2023-07-15T00:43:52.679Z,99957.69
2023-07-15T00:58:55.972Z,99956.81
2023-07-15T01:14:00.720Z,99963.16
2023-07-15T01:29:03.786Z,99967.25
2023-07-15T01:44:06.902Z,99945.50
2023-07-15T01:59:10.516Z,99958.19
2023-07-15T02:14:13.748Z,99938.22
2023-07-15T02:29:16.899Z,99925.75
2023-07-15T02:44:19.939Z,99912.78
2023-07-15T02:59:23.010Z,99914.75
2023-07-15T03:14:26.112Z,99905.78
2023-07-15T03:29:29.233Z,99916.06
2023-07-15T03:44:32.256Z,99902.03
2023-07-15T03:59:35.305Z,99911.97
2023-07-15T04:14:38.387Z,99919.44
2023-07-15T04:29:41.577Z,99928.38
2023-07-15T04:44:44.727Z,99919.22
2023-07-15T04:59:47.993Z,99918.47
2023-07-15T05:14:51.133Z,99910.56
2023-07-15T05:29:54.306Z,99897.84
2023-07-15T05:44:57.591Z,99894.34
2023-07-15T06:00:00.744Z,99856.25
2023-07-15T06:15:04.752Z,99872.56
2023-07-15T06:30:09.333Z,99876.31
2023-07-15T06:45:12.832Z,99861.94
2023-07-15T07:00:16.111Z,99882.44
2023-07-15T07:15:19.345Z,99877.03
2023-07-15T07:30:24.675Z,99879.72
2023-07-15T07:45:27.959Z,99898.56
2023-07-15T08:00:31.061Z,99912.25
2023-07-15T08:15:34.342Z,99917.34
2023-07-15T08:30:37.833Z,99913.59
2023-07-15T08:45:41.380Z,99942.66
2023-07-15T09:00:44.700Z,99942.91
2023-07-15T09:15:49.235Z,99923.84
2023-07-15T09:30:52.492Z,99959.19
2023-07-15T09:45:55.895Z,99925.13
2023-07-15T10:01:04.573Z,99936.00
2023-07-15T10:16:07.976Z,99954.63
2023-07-15T10:31:13.594Z,99923.56
2023-07-15T10:46:18.679Z,99956.22
2023-07-15T11:01:22.244Z,99934.69
2023-07-15T11:16:25.680Z,99929.50
2023-07-15T11:31:28.900Z,99878.72
2023-07-15T11:46:33.531Z,99891.53
2023-07-15T12:01:37.581Z,99891.09
2023-07-15T12:16:41.610Z,99888.03
2023-07-15T12:31:44.727Z,99872.50
2023-07-15T12:46:49.551Z,99890.88
2023-07-15T13:01:52.773Z,99871.16
2023-07-15T13:16:55.941Z,99863.66
2023-07-15T13:31:59.207Z,99872.16
2023-07-15T13:47:02.450Z,99877.72
2023-07-15T14:02:06.672Z,99933.50
2023-07-15T14:17:09.736Z,99938.00
2023-07-15T14:32:12.932Z,99949.88
2023-07-15T14:47:16.543Z,99921.97
2023-07-15T15:02:20.198Z,99946.19
2023-07-15T15:17:23.360Z,99963.16
2023-07-15T15:32:26.738Z,100021.13
2023-07-15T15:47:30.420Z,100028.41
2023-07-15T16:02:33.758Z,100003.59
2023-07-15T16:17:36.961Z,99976.22
2023-07-15T16:32:40.214Z,99963.81
2023-07-15T16:47:43.430Z,99953.16
2023-07-15T17:02:46.698Z,99960.22
2023-07-15T17:17:50.153Z,99911.47
2023-07-15T17:32:53.317Z,99915.94
2023-07-15T17:47:56.535Z,99924.50
2023-07-15T18:02:59.675Z,99918.28
2023-07-15T18:18:09.103Z,99911.69
2023-07-15T18:33:12.437Z,99917.38
2023-07-15T18:48:15.665Z,99935.38
2023-07-15T19:03:18.972Z,99916.38
2023-07-15T19:18:22.156Z,99960.13
2023-07-15T19:33:25.201Z,100003.72
2023-07-15T19:48:28.343Z,100047.28
2023-07-15T20:03:31.621Z,100111.81
2023-07-15T20:18:34.907Z,100057.25
2023-07-15T20:33:38.181Z,100052.38
2023-07-15T20:48:41.313Z,100064.81
2023-07-15T21:03:44.530Z,100064.03
2023-07-15T21:18:48.265Z,100067.44
2023-07-15T21:33:52.784Z,100116.31
2023-07-15T21:48:55.993Z,100155.59
2023-07-15T22:03:59.095Z,100117.75
2023-07-15T22:19:02.285Z,100138.41
2023-07-15T22:34:05.720Z,100231.44
2023-07-15T22:49:08.985Z,100253.16
2023-07-15T23:04:12.004Z,100220.81
2023-07-15T23:19:15.223Z,100179.00
2023-07-15T23:34:19.107Z,100261.50
2023-07-15T23:49:22.317Z,100286.63
